sensor_id;sensor_type;location;lat;lon;timestamp;P1;durP1;ratioP1;P2;durP2;ratioP2
76023;SDS011;64719;52.124;6.226;2023-05-07T00:01:42;16.30;;;12.10;;
76023;SDS011;64719;52.124;6.226;2023-05-07T00:04:10;16.05;;;11.10;;
76023;SDS011;64719;52.124;6.226;2023-05-07T00:06:38;13.48;;;11.35;;
76023;SDS011;64719;52.124;6.226;2023-05-07T00:09:05;14.65;;;11.63;;
76023;SDS011;64719;52.124;6.226;2023-05-07T00:11:32;18.70;;;13.13;;
76023;SDS011;64719;52.124;6.226;2023-05-07T00:14:00;18.45;;;12.75;;
76023;SDS011;64719;52.124;6.226;2023-05-07T00:16:26;17.73;;;13.30;;
76023;SDS011;64719;52.124;6.226;2023-05-07T00:18:53;20.48;;;14.73;;
76023;SDS011;64719;52.124;6.226;2023-05-07T00:21:20;16.50;;;13.18;;
76023;SDS011;64719;52.124;6.226;2023-05-07T00:23:47;22.55;;;15.05;;
76023;SDS011;64719;52.124;6.226;2023-05-07T00:26:13;20.85;;;14.48;;
76023;SDS011;64719;52.124;6.226;2023-05-07T00:28:40;22.30;;;15.63;;
76023;SDS011;64719;52.124;6.226;2023-05-07T00:31:07;21.13;;;15.63;;
76023;SDS011;64719;52.124;6.226;2023-05-07T00:33:33;20.95;;;15.27;;
76023;SDS011;64719;52.124;6.226;2023-05-07T00:36:00;22.40;;;16.35;;
76023;SDS011;64719;52.124;6.226;2023-05-07T00:38:28;23.13;;;15.38;;
76023;SDS011;64719;52.124;6.226;2023-05-07T00:40:54;21.73;;;15.48;;
76023;SDS011;64719;52.124;6.226;2023-05-07T00:43:21;21.88;;;15.15;;
76023;SDS011;64719;52.124;6.226;2023-05-07T00:45:47;22.67;;;15.82;;
76023;SDS011;64719;52.124;6.226;2023-05-07T00:48:15;24.38;;;15.85;;
76023;SDS011;64719;52.124;6.226;2023-05-07T00:50:42;24.25;;;16.40;;
76023;SDS011;64719;52.124;6.226;2023-05-07T00:55:38;21.67;;;15.00;;
76023;SDS011;64719;52.124;6.226;2023-05-07T00:58:05;22.70;;;16.50;;
76023;SDS011;64719;52.124;6.226;2023-05-07T01:00:32;24.42;;;16.95;;
76023;SDS011;64719;52.124;6.226;2023-05-07T01:02:58;23.17;;;16.85;;
76023;SDS011;64719;52.124;6.226;2023-05-07T01:05:25;20.23;;;15.10;;
76023;SDS011;64719;52.124;6.226;2023-05-07T01:07:54;24.45;;;17.70;;
76023;SDS011;64719;52.124;6.226;2023-05-07T01:10:21;22.67;;;15.95;;
76023;SDS011;64719;52.124;6.226;2023-05-07T01:12:49;22.77;;;16.33;;
76023;SDS011;64719;52.124;6.226;2023-05-07T01:15:16;22.10;;;16.50;;
76023;SDS011;64719;52.124;6.226;2023-05-07T01:17:43;26.13;;;17.80;;
76023;SDS011;64719;52.124;6.226;2023-05-07T01:20:10;24.27;;;17.08;;
76023;SDS011;64719;52.124;6.226;2023-05-07T01:22:39;22.88;;;16.80;;
76023;SDS011;64719;52.124;6.226;2023-05-07T01:27:33;27.30;;;18.30;;
76023;SDS011;64719;52.124;6.226;2023-05-07T01:30:00;25.65;;;18.92;;
76023;SDS011;64719;52.124;6.226;2023-05-07T01:32:27;29.75;;;19.50;;
76023;SDS011;64719;52.124;6.226;2023-05-07T01:34:58;26.48;;;16.05;;
76023;SDS011;64719;52.124;6.226;2023-05-07T01:37:27;26.80;;;19.33;;
76023;SDS011;64719;52.124;6.226;2023-05-07T01:39:56;30.10;;;20.23;;
76023;SDS011;64719;52.124;6.226;2023-05-07T01:42:23;26.80;;;18.40;;
76023;SDS011;64719;52.124;6.226;2023-05-07T01:44:50;24.40;;;18.35;;
76023;SDS011;64719;52.124;6.226;2023-05-07T01:47:17;29.40;;;20.27;;
76023;SDS011;64719;52.124;6.226;2023-05-07T01:49:43;28.38;;;19.83;;
76023;SDS011;64719;52.124;6.226;2023-05-07T01:52:10;34.97;;;21.08;;
76023;SDS011;64719;52.124;6.226;2023-05-07T01:54:37;30.75;;;20.55;;
76023;SDS011;64719;52.124;6.226;2023-05-07T01:57:05;35.45;;;21.08;;
76023;SDS011;64719;52.124;6.226;2023-05-07T01:59:31;32.58;;;21.63;;
76023;SDS011;64719;52.124;6.226;2023-05-07T02:01:58;33.45;;;22.88;;
76023;SDS011;64719;52.124;6.226;2023-05-07T02:04:25;32.72;;;21.95;;
76023;SDS011;64719;52.124;6.226;2023-05-07T02:06:52;31.77;;;21.33;;
76023;SDS011;64719;52.124;6.226;2023-05-07T02:09:18;31.17;;;22.13;;
76023;SDS011;64719;52.124;6.226;2023-05-07T02:11:45;32.80;;;23.15;;
76023;SDS011;64719;52.124;6.226;2023-05-07T02:14:13;31.33;;;21.40;;
76023;SDS011;64719;52.124;6.226;2023-05-07T02:16:40;29.08;;;20.38;;
76023;SDS011;64719;52.124;6.226;2023-05-07T02:19:06;30.02;;;21.23;;
76023;SDS011;64719;52.124;6.226;2023-05-07T02:21:33;30.27;;;21.52;;
76023;SDS011;64719;52.124;6.226;2023-05-07T02:23:59;29.48;;;21.38;;
76023;SDS011;64719;52.124;6.226;2023-05-07T02:26:26;32.88;;;22.88;;
76023;SDS011;64719;52.124;6.226;2023-05-07T02:28:52;31.58;;;21.80;;
76023;SDS011;64719;52.124;6.226;2023-05-07T02:31:20;31.50;;;21.83;;
76023;SDS011;64719;52.124;6.226;2023-05-07T02:33:47;29.50;;;19.92;;
76023;SDS011;64719;52.124;6.226;2023-05-07T02:36:13;31.95;;;20.90;;
76023;SDS011;64719;52.124;6.226;2023-05-07T02:38:40;30.70;;;20.90;;
76023;SDS011;64719;52.124;6.226;2023-05-07T02:41:06;28.63;;;19.98;;
76023;SDS011;64719;52.124;6.226;2023-05-07T02:43:33;30.23;;;20.63;;
76023;SDS011;64719;52.124;6.226;2023-05-07T02:46:00;30.42;;;20.73;;
76023;SDS011;64719;52.124;6.226;2023-05-07T02:48:29;32.20;;;20.58;;
76023;SDS011;64719;52.124;6.226;2023-05-07T02:50:55;32.92;;;21.48;;
76023;SDS011;64719;52.124;6.226;2023-05-07T02:53:22;29.90;;;19.80;;
76023;SDS011;64719;52.124;6.226;2023-05-07T02:55:50;28.92;;;20.60;;
76023;SDS011;64719;52.124;6.226;2023-05-07T02:58:17;30.35;;;20.48;;
76023;SDS011;64719;52.124;6.226;2023-05-07T03:00:44;29.17;;;21.23;;
76023;SDS011;64719;52.124;6.226;2023-05-07T03:03:10;32.03;;;21.50;;
76023;SDS011;64719;52.124;6.226;2023-05-07T03:05:38;30.92;;;21.73;;
76023;SDS011;64719;52.124;6.226;2023-05-07T03:08:05;35.47;;;22.40;;
76023;SDS011;64719;52.124;6.226;2023-05-07T03:10:31;32.13;;;21.60;;
76023;SDS011;64719;52.124;6.226;2023-05-07T03:12:57;32.22;;;22.10;;
76023;SDS011;64719;52.124;6.226;2023-05-07T03:15:24;30.65;;;21.35;;
76023;SDS011;64719;52.124;6.226;2023-05-07T03:17:50;35.00;;;23.23;;
76023;SDS011;64719;52.124;6.226;2023-05-07T03:20:17;30.80;;;20.70;;
76023;SDS011;64719;52.124;6.226;2023-05-07T03:22:45;34.75;;;22.40;;
76023;SDS011;64719;52.124;6.226;2023-05-07T03:25:11;33.85;;;21.92;;
76023;SDS011;64719;52.124;6.226;2023-05-07T03:27:39;32.75;;;21.73;;
76023;SDS011;64719;52.124;6.226;2023-05-07T03:30:07;33.60;;;21.83;;
76023;SDS011;64719;52.124;6.226;2023-05-07T03:32:34;35.45;;;21.48;;
76023;SDS011;64719;52.124;6.226;2023-05-07T03:35:01;35.60;;;22.08;;
76023;SDS011;64719;52.124;6.226;2023-05-07T03:37:28;32.35;;;21.42;;
76023;SDS011;64719;52.124;6.226;2023-05-07T03:39:56;34.70;;;22.40;;
76023;SDS011;64719;52.124;6.226;2023-05-07T03:42:23;34.55;;;22.65;;
76023;SDS011;64719;52.124;6.226;2023-05-07T03:44:49;33.35;;;21.10;;
76023;SDS011;64719;52.124;6.226;2023-05-07T03:47:16;37.20;;;22.42;;
76023;SDS011;64719;52.124;6.226;2023-05-07T03:49:42;33.20;;;21.80;;
76023;SDS011;64719;52.124;6.226;2023-05-07T03:52:09;37.92;;;22.75;;
76023;SDS011;64719;52.124;6.226;2023-05-07T03:54:36;38.58;;;23.45;;
76023;SDS011;64719;52.124;6.226;2023-05-07T03:57:04;37.85;;;23.90;;
76023;SDS011;64719;52.124;6.226;2023-05-07T03:59:30;33.88;;;21.95;;
76023;SDS011;64719;52.124;6.226;2023-05-07T04:01:56;36.42;;;23.30;;
76023;SDS011;64719;52.124;6.226;2023-05-07T04:04:23;38.60;;;26.75;;
76023;SDS011;64719;52.124;6.226;2023-05-07T04:06:50;41.28;;;24.73;;
76023;SDS011;64719;52.124;6.226;2023-05-07T04:09:16;39.97;;;24.30;;
76023;SDS011;64719;52.124;6.226;2023-05-07T04:11:43;41.80;;;26.88;;
76023;SDS011;64719;52.124;6.226;2023-05-07T04:14:11;34.72;;;23.05;;
76023;SDS011;64719;52.124;6.226;2023-05-07T04:16:37;39.10;;;23.77;;
76023;SDS011;64719;52.124;6.226;2023-05-07T04:19:03;41.42;;;25.40;;
76023;SDS011;64719;52.124;6.226;2023-05-07T04:21:30;34.90;;;23.98;;
76023;SDS011;64719;52.124;6.226;2023-05-07T04:23:57;38.20;;;23.52;;
76023;SDS011;64719;52.124;6.226;2023-05-07T04:26:23;36.90;;;22.27;;
76023;SDS011;64719;52.124;6.226;2023-05-07T04:28:50;37.35;;;23.42;;
76023;SDS011;64719;52.124;6.226;2023-05-07T04:31:18;37.95;;;24.23;;
76023;SDS011;64719;52.124;6.226;2023-05-07T04:33:44;35.88;;;23.55;;
76023;SDS011;64719;52.124;6.226;2023-05-07T04:36:11;36.08;;;23.70;;
76023;SDS011;64719;52.124;6.226;2023-05-07T04:38:37;35.95;;;23.50;;
76023;SDS011;64719;52.124;6.226;2023-05-07T04:41:04;35.03;;;24.45;;
76023;SDS011;64719;52.124;6.226;2023-05-07T04:43:31;36.33;;;25.17;;
76023;SDS011;64719;52.124;6.226;2023-05-07T04:45:58;34.00;;;21.92;;
76023;SDS011;64719;52.124;6.226;2023-05-07T04:48:26;31.70;;;21.33;;
76023;SDS011;64719;52.124;6.226;2023-05-07T04:50:53;33.28;;;21.02;;
76023;SDS011;64719;52.124;6.226;2023-05-07T04:53:20;32.88;;;20.73;;
76023;SDS011;64719;52.124;6.226;2023-05-07T04:55:47;33.88;;;21.27;;
76023;SDS011;64719;52.124;6.226;2023-05-07T04:58:14;31.02;;;20.85;;
76023;SDS011;64719;52.124;6.226;2023-05-07T05:00:40;29.02;;;20.08;;
76023;SDS011;64719;52.124;6.226;2023-05-07T05:03:07;30.20;;;19.58;;
76023;SDS011;64719;52.124;6.226;2023-05-07T05:05:35;33.75;;;19.70;;
76023;SDS011;64719;52.124;6.226;2023-05-07T05:08:01;29.13;;;20.10;;
76023;SDS011;64719;52.124;6.226;2023-05-07T05:10:28;27.15;;;18.27;;
76023;SDS011;64719;52.124;6.226;2023-05-07T05:12:54;27.02;;;17.95;;
76023;SDS011;64719;52.124;6.226;2023-05-07T05:15:21;27.83;;;18.08;;
76023;SDS011;64719;52.124;6.226;2023-05-07T05:17:48;29.05;;;17.55;;
76023;SDS011;64719;52.124;6.226;2023-05-07T05:20:14;28.25;;;18.15;;
76023;SDS011;64719;52.124;6.226;2023-05-07T05:22:42;30.13;;;17.38;;
76023;SDS011;64719;52.124;6.226;2023-05-07T05:25:09;28.50;;;18.63;;
76023;SDS011;64719;52.124;6.226;2023-05-07T05:27:35;26.88;;;17.05;;
76023;SDS011;64719;52.124;6.226;2023-05-07T05:30:02;27.27;;;16.98;;
76023;SDS011;64719;52.124;6.226;2023-05-07T05:32:30;29.75;;;16.63;;
76023;SDS011;64719;52.124;6.226;2023-05-07T05:34:56;28.08;;;17.02;;
76023;SDS011;64719;52.124;6.226;2023-05-07T05:37:23;28.63;;;18.08;;
76023;SDS011;64719;52.124;6.226;2023-05-07T05:39:51;26.38;;;17.05;;
76023;SDS011;64719;52.124;6.226;2023-05-07T05:42:19;27.67;;;16.60;;
76023;SDS011;64719;52.124;6.226;2023-05-07T05:44:46;28.73;;;17.70;;
76023;SDS011;64719;52.124;6.226;2023-05-07T05:47:13;28.30;;;19.13;;
76023;SDS011;64719;52.124;6.226;2023-05-07T05:49:39;29.67;;;18.45;;
76023;SDS011;64719;52.124;6.226;2023-05-07T05:52:08;27.98;;;17.90;;
76023;SDS011;64719;52.124;6.226;2023-05-07T05:54:34;31.65;;;19.40;;
76023;SDS011;64719;52.124;6.226;2023-05-07T05:57:02;26.33;;;17.77;;
76023;SDS011;64719;52.124;6.226;2023-05-07T05:59:29;26.67;;;17.65;;
76023;SDS011;64719;52.124;6.226;2023-05-07T06:01:55;27.40;;;16.98;;
76023;SDS011;64719;52.124;6.226;2023-05-07T06:04:22;28.10;;;17.80;;
76023;SDS011;64719;52.124;6.226;2023-05-07T06:06:48;32.70;;;17.65;;
76023;SDS011;64719;52.124;6.226;2023-05-07T06:09:15;27.15;;;17.85;;
76023;SDS011;64719;52.124;6.226;2023-05-07T06:11:41;29.52;;;17.38;;
76023;SDS011;64719;52.124;6.226;2023-05-07T06:14:09;30.27;;;17.75;;
76023;SDS011;64719;52.124;6.226;2023-05-07T06:16:36;28.98;;;17.75;;
76023;SDS011;64719;52.124;6.226;2023-05-07T06:19:03;32.22;;;19.00;;
76023;SDS011;64719;52.124;6.226;2023-05-07T06:21:29;28.85;;;18.70;;
76023;SDS011;64719;52.124;6.226;2023-05-07T06:23:56;29.45;;;18.17;;
76023;SDS011;64719;52.124;6.226;2023-05-07T06:26:22;30.83;;;18.67;;
76023;SDS011;64719;52.124;6.226;2023-05-07T06:28:50;29.92;;;18.52;;
76023;SDS011;64719;52.124;6.226;2023-05-07T06:31:18;28.58;;;19.30;;
76023;SDS011;64719;52.124;6.226;2023-05-07T06:33:46;27.45;;;17.52;;
76023;SDS011;64719;52.124;6.226;2023-05-07T06:36:13;30.90;;;19.05;;
76023;SDS011;64719;52.124;6.226;2023-05-07T06:38:39;29.70;;;17.65;;
76023;SDS011;64719;52.124;6.226;2023-05-07T06:41:06;29.20;;;19.38;;
76023;SDS011;64719;52.124;6.226;2023-05-07T06:43:32;28.52;;;19.27;;
76023;SDS011;64719;52.124;6.226;2023-05-07T06:45:59;27.85;;;18.50;;
76023;SDS011;64719;52.124;6.226;2023-05-07T06:48:27;28.35;;;18.17;;
76023;SDS011;64719;52.124;6.226;2023-05-07T06:50:54;27.63;;;18.23;;
76023;SDS011;64719;52.124;6.226;2023-05-07T06:53:22;26.10;;;18.08;;
76023;SDS011;64719;52.124;6.226;2023-05-07T06:55:49;28.65;;;17.83;;
76023;SDS011;64719;52.124;6.226;2023-05-07T06:58:16;29.10;;;18.88;;
76023;SDS011;64719;52.124;6.226;2023-05-07T07:00:42;28.13;;;17.83;;
76023;SDS011;64719;52.124;6.226;2023-05-07T07:03:09;28.10;;;17.83;;
76023;SDS011;64719;52.124;6.226;2023-05-07T07:05:37;27.70;;;17.80;;
76023;SDS011;64719;52.124;6.226;2023-05-07T07:08:04;27.58;;;18.48;;
76023;SDS011;64719;52.124;6.226;2023-05-07T07:10:30;30.88;;;18.70;;
76023;SDS011;64719;52.124;6.226;2023-05-07T07:12:57;30.02;;;18.45;;
76023;SDS011;64719;52.124;6.226;2023-05-07T07:15:24;29.70;;;19.52;;
76023;SDS011;64719;52.124;6.226;2023-05-07T07:17:50;29.75;;;18.55;;
76023;SDS011;64719;52.124;6.226;2023-05-07T07:20:17;30.73;;;19.05;;
76023;SDS011;64719;52.124;6.226;2023-05-07T07:22:45;29.17;;;18.00;;
76023;SDS011;64719;52.124;6.226;2023-05-07T07:25:11;28.33;;;19.40;;
76023;SDS011;64719;52.124;6.226;2023-05-07T07:27:38;26.02;;;17.33;;
76023;SDS011;64719;52.124;6.226;2023-05-07T07:30:05;26.63;;;17.08;;
76023;SDS011;64719;52.124;6.226;2023-05-07T07:32:32;26.98;;;17.27;;
76023;SDS011;64719;52.124;6.226;2023-05-07T07:34:59;27.58;;;16.77;;
76023;SDS011;64719;52.124;6.226;2023-05-07T07:37:25;23.77;;;16.00;;
76023;SDS011;64719;52.124;6.226;2023-05-07T07:39:53;25.40;;;16.67;;
76023;SDS011;64719;52.124;6.226;2023-05-07T07:42:19;28.73;;;16.88;;
76023;SDS011;64719;52.124;6.226;2023-05-07T07:44:46;26.77;;;16.95;;
76023;SDS011;64719;52.124;6.226;2023-05-07T07:47:12;27.25;;;17.25;;
76023;SDS011;64719;52.124;6.226;2023-05-07T07:49:39;26.90;;;16.95;;
76023;SDS011;64719;52.124;6.226;2023-05-07T07:52:05;25.85;;;17.70;;
76023;SDS011;64719;52.124;6.226;2023-05-07T07:54:32;26.92;;;17.58;;
76023;SDS011;64719;52.124;6.226;2023-05-07T07:57:00;23.13;;;17.02;;
76023;SDS011;64719;52.124;6.226;2023-05-07T07:59:26;25.55;;;17.02;;
76023;SDS011;64719;52.124;6.226;2023-05-07T08:01:53;27.50;;;17.40;;
76023;SDS011;64719;52.124;6.226;2023-05-07T08:04:21;25.35;;;16.73;;
76023;SDS011;64719;52.124;6.226;2023-05-07T08:06:48;33.50;;;17.65;;
76023;SDS011;64719;52.124;6.226;2023-05-07T08:09:14;25.23;;;16.88;;
76023;SDS011;64719;52.124;6.226;2023-05-07T08:11:41;25.58;;;16.45;;
76023;SDS011;64719;52.124;6.226;2023-05-07T08:14:09;21.27;;;15.35;;
76023;SDS011;64719;52.124;6.226;2023-05-07T08:16:35;25.35;;;16.52;;
76023;SDS011;64719;52.124;6.226;2023-05-07T08:19:02;23.25;;;17.38;;
76023;SDS011;64719;52.124;6.226;2023-05-07T08:21:28;22.67;;;16.15;;
76023;SDS011;64719;52.124;6.226;2023-05-07T08:23:55;24.05;;;16.80;;
76023;SDS011;64719;52.124;6.226;2023-05-07T08:26:22;22.30;;;16.08;;
76023;SDS011;64719;52.124;6.226;2023-05-07T08:28:48;22.63;;;16.38;;
76023;SDS011;64719;52.124;6.226;2023-05-07T08:31:16;23.35;;;16.65;;
76023;SDS011;64719;52.124;6.226;2023-05-07T08:33:43;21.35;;;15.75;;
76023;SDS011;64719;52.124;6.226;2023-05-07T08:36:09;21.35;;;16.38;;
76023;SDS011;64719;52.124;6.226;2023-05-07T08:38:36;22.48;;;15.60;;
76023;SDS011;64719;52.124;6.226;2023-05-07T08:41:02;20.00;;;15.75;;
76023;SDS011;64719;52.124;6.226;2023-05-07T08:43:29;20.77;;;15.07;;
76023;SDS011;64719;52.124;6.226;2023-05-07T08:45:58;19.42;;;14.80;;
76023;SDS011;64719;52.124;6.226;2023-05-07T08:48:29;20.38;;;14.48;;
76023;SDS011;64719;52.124;6.226;2023-05-07T08:50:57;18.77;;;14.65;;
76023;SDS011;64719;52.124;6.226;2023-05-07T08:53:24;20.30;;;15.15;;
76023;SDS011;64719;52.124;6.226;2023-05-07T08:55:51;19.52;;;14.90;;
76023;SDS011;64719;52.124;6.226;2023-05-07T08:58:17;18.52;;;14.70;;
76023;SDS011;64719;52.124;6.226;2023-05-07T09:00:44;18.98;;;15.63;;
76023;SDS011;64719;52.124;6.226;2023-05-07T09:03:11;19.23;;;14.50;;
76023;SDS011;64719;52.124;6.226;2023-05-07T09:05:40;16.35;;;14.10;;
76023;SDS011;64719;52.124;6.226;2023-05-07T09:08:08;18.05;;;14.15;;
76023;SDS011;64719;52.124;6.226;2023-05-07T09:10:35;16.65;;;13.73;;
76023;SDS011;64719;52.124;6.226;2023-05-07T09:13:02;16.80;;;13.38;;
76023;SDS011;64719;52.124;6.226;2023-05-07T09:15:29;16.52;;;13.60;;
76023;SDS011;64719;52.124;6.226;2023-05-07T09:17:58;18.45;;;13.75;;
76023;SDS011;64719;52.124;6.226;2023-05-07T09:20:27;15.30;;;12.77;;
76023;SDS011;64719;52.124;6.226;2023-05-07T09:22:56;17.63;;;14.02;;
76023;SDS011;64719;52.124;6.226;2023-05-07T09:25:27;17.33;;;13.93;;
76023;SDS011;64719;52.124;6.226;2023-05-07T09:27:54;17.90;;;13.63;;
76023;SDS011;64719;52.124;6.226;2023-05-07T09:30:21;18.15;;;13.88;;
76023;SDS011;64719;52.124;6.226;2023-05-07T09:32:47;17.42;;;14.05;;
76023;SDS011;64719;52.124;6.226;2023-05-07T09:35:14;21.30;;;15.10;;
76023;SDS011;64719;52.124;6.226;2023-05-07T09:37:41;17.88;;;14.85;;
76023;SDS011;64719;52.124;6.226;2023-05-07T09:40:10;17.08;;;14.27;;
76023;SDS011;64719;52.124;6.226;2023-05-07T09:42:46;16.90;;;13.90;;
76023;SDS011;64719;52.124;6.226;2023-05-07T09:45:13;16.98;;;13.80;;
76023;SDS011;64719;52.124;6.226;2023-05-07T09:47:39;17.20;;;14.48;;
76023;SDS011;64719;52.124;6.226;2023-05-07T09:50:10;15.88;;;13.73;;
76023;SDS011;64719;52.124;6.226;2023-05-07T09:52:38;16.30;;;14.60;;
76023;SDS011;64719;52.124;6.226;2023-05-07T09:55:06;17.48;;;14.93;;
76023;SDS011;64719;52.124;6.226;2023-05-07T09:57:35;17.70;;;13.40;;
76023;SDS011;64719;52.124;6.226;2023-05-07T10:00:03;16.40;;;13.85;;
76023;SDS011;64719;52.124;6.226;2023-05-07T10:02:30;15.30;;;12.88;;
76023;SDS011;64719;52.124;6.226;2023-05-07T10:05:00;17.38;;;14.48;;
76023;SDS011;64719;52.124;6.226;2023-05-07T10:09:55;16.35;;;13.85;;
76023;SDS011;64719;52.124;6.226;2023-05-07T10:12:21;16.33;;;13.80;;
76023;SDS011;64719;52.124;6.226;2023-05-07T10:14:50;14.77;;;13.07;;
76023;SDS011;64719;52.124;6.226;2023-05-07T10:17:19;15.93;;;14.20;;
76023;SDS011;64719;52.124;6.226;2023-05-07T10:19:46;17.27;;;14.15;;
76023;SDS011;64719;52.124;6.226;2023-05-07T10:22:14;15.35;;;13.68;;
76023;SDS011;64719;52.124;6.226;2023-05-07T10:24:42;15.77;;;13.60;;
76023;SDS011;64719;52.124;6.226;2023-05-07T10:27:11;14.82;;;12.90;;
76023;SDS011;64719;52.124;6.226;2023-05-07T10:29:42;16.80;;;14.77;;
76023;SDS011;64719;52.124;6.226;2023-05-07T10:32:28;15.82;;;14.23;;
76023;SDS011;64719;52.124;6.226;2023-05-07T10:35:03;14.85;;;13.30;;
76023;SDS011;64719;52.124;6.226;2023-05-07T10:37:35;15.88;;;13.38;;
76023;SDS011;64719;52.124;6.226;2023-05-07T10:40:02;17.10;;;13.75;;
76023;SDS011;64719;52.124;6.226;2023-05-07T10:42:29;16.25;;;14.02;;
76023;SDS011;64719;52.124;6.226;2023-05-07T10:44:56;16.13;;;12.45;;
76023;SDS011;64719;52.124;6.226;2023-05-07T10:47:22;17.17;;;13.85;;
76023;SDS011;64719;52.124;6.226;2023-05-07T10:55:51;14.68;;;11.32;;
76023;SDS011;64719;52.124;6.226;2023-05-07T10:58:38;14.30;;;11.05;;
76023;SDS011;64719;52.124;6.226;2023-05-07T11:01:04;12.25;;;10.95;;
76023;SDS011;64719;52.124;6.226;2023-05-07T11:03:31;11.98;;;10.52;;
76023;SDS011;64719;52.124;6.226;2023-05-07T11:06:10;12.07;;;10.75;;
76023;SDS011;64719;52.124;6.226;2023-05-07T11:08:55;14.02;;;11.23;;
76023;SDS011;64719;52.124;6.226;2023-05-07T11:14:13;11.13;;;10.02;;
76023;SDS011;64719;52.124;6.226;2023-05-07T11:16:40;13.10;;;11.80;;
76023;SDS011;64719;52.124;6.226;2023-05-07T11:19:09;12.80;;;11.50;;
76023;SDS011;64719;52.124;6.226;2023-05-07T11:21:36;12.70;;;11.07;;
76023;SDS011;64719;52.124;6.226;2023-05-07T11:24:05;12.20;;;10.75;;
76023;SDS011;64719;52.124;6.226;2023-05-07T11:26:41;13.77;;;11.90;;
76023;SDS011;64719;52.124;6.226;2023-05-07T11:29:13;11.82;;;10.73;;
76023;SDS011;64719;52.124;6.226;2023-05-07T11:31:41;13.82;;;12.25;;
76023;SDS011;64719;52.124;6.226;2023-05-07T11:34:08;12.77;;;11.48;;
76023;SDS011;64719;52.124;6.226;2023-05-07T11:36:35;14.23;;;12.73;;
76023;SDS011;64719;52.124;6.226;2023-05-07T11:41:52;12.65;;;11.35;;
76023;SDS011;64719;52.124;6.226;2023-05-07T11:44:19;13.18;;;11.88;;
76023;SDS011;64719;52.124;6.226;2023-05-07T11:46:45;13.27;;;11.88;;
76023;SDS011;64719;52.124;6.226;2023-05-07T11:49:12;13.45;;;11.20;;
76023;SDS011;64719;52.124;6.226;2023-05-07T11:51:38;12.13;;;9.95;;
76023;SDS011;64719;52.124;6.226;2023-05-07T11:54:05;13.70;;;11.05;;
76023;SDS011;64719;52.124;6.226;2023-05-07T11:56:35;11.57;;;10.05;;
76023;SDS011;64719;52.124;6.226;2023-05-07T11:59:01;10.80;;;8.70;;
76023;SDS011;64719;52.124;6.226;2023-05-07T12:01:28;10.73;;;8.27;;
76023;SDS011;64719;52.124;6.226;2023-05-07T12:03:54;10.10;;;8.57;;
76023;SDS011;64719;52.124;6.226;2023-05-07T12:06:21;9.10;;;8.20;;
76023;SDS011;64719;52.124;6.226;2023-05-07T12:08:47;10.77;;;8.55;;
76023;SDS011;64719;52.124;6.226;2023-05-07T12:11:14;9.32;;;8.32;;
76023;SDS011;64719;52.124;6.226;2023-05-07T12:13:49;9.02;;;8.13;;
76023;SDS011;64719;52.124;6.226;2023-05-07T12:16:15;10.05;;;8.70;;
76023;SDS011;64719;52.124;6.226;2023-05-07T12:18:42;9.73;;;8.32;;
76023;SDS011;64719;52.124;6.226;2023-05-07T12:21:09;10.75;;;9.65;;
76023;SDS011;64719;52.124;6.226;2023-05-07T12:23:36;11.32;;;10.23;;
76023;SDS011;64719;52.124;6.226;2023-05-07T12:26:03;11.32;;;9.85;;
76023;SDS011;64719;52.124;6.226;2023-05-07T12:28:30;13.02;;;10.65;;
76023;SDS011;64719;52.124;6.226;2023-05-07T12:31:03;12.95;;;10.95;;
76023;SDS011;64719;52.124;6.226;2023-05-07T12:33:30;12.65;;;11.35;;
76023;SDS011;64719;52.124;6.226;2023-05-07T12:35:57;12.77;;;10.35;;
76023;SDS011;64719;52.124;6.226;2023-05-07T12:38:24;11.52;;;10.35;;
76023;SDS011;64719;52.124;6.226;2023-05-07T12:40:53;12.40;;;9.70;;
76023;SDS011;64719;52.124;6.226;2023-05-07T12:43:21;13.40;;;10.93;;
76023;SDS011;64719;52.124;6.226;2023-05-07T12:45:51;12.57;;;9.15;;
76023;SDS011;64719;52.124;6.226;2023-05-07T12:48:21;9.25;;;7.40;;
76023;SDS011;64719;52.124;6.226;2023-05-07T12:50:49;9.32;;;8.07;;
76023;SDS011;64719;52.124;6.226;2023-05-07T12:53:16;10.63;;;8.45;;
76023;SDS011;64719;52.124;6.226;2023-05-07T12:55:47;9.40;;;7.90;;
76023;SDS011;64719;52.124;6.226;2023-05-07T12:58:15;11.23;;;8.00;;
76023;SDS011;64719;52.124;6.226;2023-05-07T13:00:43;11.88;;;8.45;;
76023;SDS011;64719;52.124;6.226;2023-05-07T13:03:10;9.32;;;7.68;;
76023;SDS011;64719;52.124;6.226;2023-05-07T13:05:39;9.98;;;7.25;;
76023;SDS011;64719;52.124;6.226;2023-05-07T13:08:05;9.98;;;7.43;;
76023;SDS011;64719;52.124;6.226;2023-05-07T13:10:34;9.65;;;7.40;;
76023;SDS011;64719;52.124;6.226;2023-05-07T13:13:02;8.73;;;7.65;;
76023;SDS011;64719;52.124;6.226;2023-05-07T13:15:29;10.45;;;8.55;;
76023;SDS011;64719;52.124;6.226;2023-05-07T13:17:56;9.93;;;7.00;;
76023;SDS011;64719;52.124;6.226;2023-05-07T13:20:22;10.48;;;8.27;;
76023;SDS011;64719;52.124;6.226;2023-05-07T13:22:50;9.90;;;6.95;;
76023;SDS011;64719;52.124;6.226;2023-05-07T13:25:17;9.30;;;6.38;;
76023;SDS011;64719;52.124;6.226;2023-05-07T13:27:44;8.70;;;6.93;;
76023;SDS011;64719;52.124;6.226;2023-05-07T13:30:10;9.13;;;7.75;;
76023;SDS011;64719;52.124;6.226;2023-05-07T13:32:37;9.20;;;6.80;;
76023;SDS011;64719;52.124;6.226;2023-05-07T13:35:03;11.57;;;7.43;;
76023;SDS011;64719;52.124;6.226;2023-05-07T13:39:58;9.95;;;8.05;;
76023;SDS011;64719;52.124;6.226;2023-05-07T13:42:25;10.75;;;8.55;;
76023;SDS011;64719;52.124;6.226;2023-05-07T13:44:51;10.60;;;8.45;;
76023;SDS011;64719;52.124;6.226;2023-05-07T13:47:18;13.25;;;9.48;;
76023;SDS011;64719;52.124;6.226;2023-05-07T13:49:44;10.75;;;8.50;;
76023;SDS011;64719;52.124;6.226;2023-05-07T13:52:11;11.20;;;8.55;;
76023;SDS011;64719;52.124;6.226;2023-05-07T13:54:38;11.13;;;8.07;;
76023;SDS011;64719;52.124;6.226;2023-05-07T13:57:06;11.00;;;8.43;;
76023;SDS011;64719;52.124;6.226;2023-05-07T13:59:32;9.65;;;7.78;;
76023;SDS011;64719;52.124;6.226;2023-05-07T14:01:59;9.32;;;7.07;;
76023;SDS011;64719;52.124;6.226;2023-05-07T14:04:25;9.98;;;7.18;;
76023;SDS011;64719;52.124;6.226;2023-05-07T14:06:52;10.25;;;7.38;;
76023;SDS011;64719;52.124;6.226;2023-05-07T14:09:18;9.02;;;6.90;;
76023;SDS011;64719;52.124;6.226;2023-05-07T14:11:45;10.73;;;7.57;;
76023;SDS011;64719;52.124;6.226;2023-05-07T14:14:14;10.02;;;8.27;;
76023;SDS011;64719;52.124;6.226;2023-05-07T14:16:40;9.73;;;7.70;;
76023;SDS011;64719;52.124;6.226;2023-05-07T14:19:06;11.27;;;7.72;;
76023;SDS011;64719;52.124;6.226;2023-05-07T14:21:33;10.80;;;7.10;;
76023;SDS011;64719;52.124;6.226;2023-05-07T14:23:59;8.93;;;6.72;;
76023;SDS011;64719;52.124;6.226;2023-05-07T14:26:26;9.18;;;7.05;;
76023;SDS011;64719;52.124;6.226;2023-05-07T14:28:53;8.93;;;7.05;;
76023;SDS011;64719;52.124;6.226;2023-05-07T14:31:23;11.25;;;7.57;;
76023;SDS011;64719;52.124;6.226;2023-05-07T14:33:50;9.48;;;7.82;;
76023;SDS011;64719;52.124;6.226;2023-05-07T14:36:17;9.82;;;7.20;;
76023;SDS011;64719;52.124;6.226;2023-05-07T14:38:44;11.05;;;7.85;;
76023;SDS011;64719;52.124;6.226;2023-05-07T14:41:11;12.93;;;8.32;;
76023;SDS011;64719;52.124;6.226;2023-05-07T14:43:38;10.80;;;6.85;;
76023;SDS011;64719;52.124;6.226;2023-05-07T14:46:04;12.60;;;8.45;;
76023;SDS011;64719;52.124;6.226;2023-05-07T14:48:32;9.85;;;7.70;;